sensor_id;sensor_type;location;lat;lon;timestamp;pressure;altitude;pressure_sealevel;temperature;humidity
28000;BME280;15328;50.860;10.562;2023-07-20T00:04:44;96267.44;;;17.37;61.61
28000;BME280;15328;50.860;10.562;2023-07-20T00:09:44;96265.00;;;17.30;61.55
28000;BME280;15328;50.860;10.562;2023-07-20T00:14:44;96270.06;;;17.22;61.59
28000;BME280;15328;50.860;10.562;2023-07-20T00:19:45;96267.06;;;17.08;61.65
28000;BME280;15328;50.860;10.562;2023-07-20T00:24:45;96261.69;;;17.03;61.85
28000;BME280;15328;50.860;10.562;2023-07-20T00:29:46;96261.63;;;16.98;62.13
28000;BME280;15328;50.860;10.562;2023-07-20T00:34:46;96260.59;;;16.99;62.21
28000;BME280;15328;50.860;10.562;2023-07-20T00:39:46;96260.53;;;16.94;62.24
28000;BME280;15328;50.860;10.562;2023-07-20T00:44:47;96243.06;;;16.91;61.97
28000;BME280;15328;50.860;10.562;2023-07-20T00:49:47;96238.47;;;16.82;62.44
28000;BME280;15328;50.860;10.562;2023-07-20T00:54:49;96239.53;;;16.76;62.72
28000;BME280;15328;50.860;10.562;2023-07-20T00:59:49;96242.41;;;16.69;62.45
28000;BME280;15328;50.860;10.562;2023-07-20T01:04:50;96243.44;;;16.63;62.33
28000;BME280;15328;50.860;10.562;2023-07-20T01:10:28;96235.09;;;16.59;62.84
28000;BME280;15328;50.860;10.562;2023-07-20T01:15:29;96234.00;;;16.55;63.29
28000;BME280;15328;50.860;10.562;2023-07-20T01:20:31;96230.22;;;16.51;63.48
28000;BME280;15328;50.860;10.562;2023-07-20T01:36:28;96225.66;;;16.52;64.37
28000;BME280;15328;50.860;10.562;2023-07-20T01:41:29;96223.75;;;16.47;64.52
28000;BME280;15328;50.860;10.562;2023-07-20T01:46:30;96232.38;;;16.49;64.14
28000;BME280;15328;50.860;10.562;2023-07-20T01:51:30;96231.31;;;16.55;64.07
28000;BME280;15328;50.860;10.562;2023-07-20T01:56:30;96239.09;;;16.52;64.34
28000;BME280;15328;50.860;10.562;2023-07-20T02:01:31;96251.19;;;16.54;64.00
28000;BME280;15328;50.860;10.562;2023-07-20T02:06:31;96244.47;;;16.57;64.18
28000;BME280;15328;50.860;10.562;2023-07-20T02:11:31;96241.78;;;16.57;64.23
28000;BME280;15328;50.860;10.562;2023-07-20T02:16:32;96226.53;;;16.62;64.46
28000;BME280;15328;50.860;10.562;2023-07-20T02:21:32;96231.88;;;16.62;64.74
28000;BME280;15328;50.860;10.562;2023-07-20T02:26:33;96220.63;;;16.65;64.33
28000;BME280;15328;50.860;10.562;2023-07-20T02:31:33;96219.53;;;16.61;64.05
28000;BME280;15328;50.860;10.562;2023-07-20T02:36:34;96231.88;;;16.62;64.45
28000;BME280;15328;50.860;10.562;2023-07-20T02:41:35;96226.50;;;16.57;64.31
28000;BME280;15328;50.860;10.562;2023-07-20T02:46:35;96236.69;;;16.55;64.52
28000;BME280;15328;50.860;10.562;2023-07-20T02:51:35;96244.47;;;16.52;64.35
28000;BME280;15328;50.860;10.562;2023-07-20T02:56:36;96239.38;;;16.55;64.45
28000;BME280;15328;50.860;10.562;2023-07-20T03:01:36;96242.34;;;16.59;64.41
28000;BME280;15328;50.860;10.562;2023-07-20T03:06:36;96252.00;;;16.60;64.31
28000;BME280;15328;50.860;10.562;2023-07-20T03:11:37;96247.72;;;16.59;64.46
28000;BME280;15328;50.860;10.562;2023-07-20T03:16:37;96251.47;;;16.58;65.07
28000;BME280;15328;50.860;10.562;2023-07-20T03:21:37;96253.91;;;16.59;65.29
28000;BME280;15328;50.860;10.562;2023-07-20T03:26:41;96253.69;;;16.66;65.54
28000;BME280;15328;50.860;10.562;2023-07-20T03:31:41;96250.47;;;16.69;65.70
28000;BME280;15328;50.860;10.562;2023-07-20T03:36:41;96251.06;;;16.71;65.91
28000;BME280;15328;50.860;10.562;2023-07-20T03:41:42;96255.91;;;16.79;65.92
28000;BME280;15328;50.860;10.562;2023-07-20T03:46:43;96255.41;;;16.82;65.64
28000;BME280;15328;50.860;10.562;2023-07-20T03:51:44;96253.00;;;16.86;65.42
28000;BME280;15328;50.860;10.562;2023-07-20T03:56:44;96254.88;;;16.90;65.30
28000;BME280;15328;50.860;10.562;2023-07-20T04:01:44;96258.09;;;16.87;64.87
28000;BME280;15328;50.860;10.562;2023-07-20T04:06:45;96258.09;;;16.87;64.64
28000;BME280;15328;50.860;10.562;2023-07-20T04:11:46;96264.53;;;16.86;64.37
28000;BME280;15328;50.860;10.562;2023-07-20T04:16:47;96264.28;;;16.88;63.88
28000;BME280;15328;50.860;10.562;2023-07-20T04:21:47;96271.78;;;16.81;63.72
28000;BME280;15328;50.860;10.562;2023-07-20T04:26:47;96263.19;;;16.84;64.09
28000;BME280;15328;50.860;10.562;2023-07-20T04:31:48;96276.13;;;16.92;64.04
28000;BME280;15328;50.860;10.562;2023-07-20T04:36:48;96273.16;;;16.88;63.83
28000;BME280;15328;50.860;10.562;2023-07-20T04:41:48;96281.72;;;16.85;63.67
28000;BME280;15328;50.860;10.562;2023-07-20T04:46:49;96293.03;;;16.87;63.94
28000;BME280;15328;50.860;10.562;2023-07-20T04:51:49;96293.88;;;16.98;63.71
28000;BME280;15328;50.860;10.562;2023-07-20T04:56:49;96295.78;;;17.03;63.80
28000;BME280;15328;50.860;10.562;2023-07-20T05:01:50;96296.63;;;17.08;63.75
28000;BME280;15328;50.860;10.562;2023-07-20T05:06:50;96295.56;;;17.14;63.74
28000;BME280;15328;50.860;10.562;2023-07-20T05:11:50;96298.28;;;17.19;64.03
28000;BME280;15328;50.860;10.562;2023-07-20T05:16:51;96298.88;;;17.26;63.88
28000;BME280;15328;50.860;10.562;2023-07-20T05:21:51;96300.78;;;17.36;63.39
28000;BME280;15328;50.860;10.562;2023-07-20T05:26:51;96299.72;;;17.52;63.12
28000;BME280;15328;50.860;10.562;2023-07-20T05:31:52;96295.25;;;17.68;63.06
28000;BME280;15328;50.860;10.562;2023-07-20T05:36:52;96296.06;;;17.79;62.41
28000;BME280;15328;50.860;10.562;2023-07-20T05:41:52;96300.66;;;17.88;62.09
28000;BME280;15328;50.860;10.562;2023-07-20T05:46:53;96293.13;;;17.90;61.30
28000;BME280;15328;50.860;10.562;2023-07-20T05:51:55;96299.59;;;18.00;60.98
28000;BME280;15328;50.860;10.562;2023-07-20T05:56:56;96298.00;;;18.14;60.66
28000;BME280;15328;50.860;10.562;2023-07-20T06:01:56;96305.25;;;18.23;60.16
28000;BME280;15328;50.860;10.562;2023-07-20T06:06:56;96304.19;;;18.30;59.11
28000;BME280;15328;50.860;10.562;2023-07-20T06:11:56;96308.50;;;18.26;59.37
28000;BME280;15328;50.860;10.562;2023-07-20T06:16:57;96311.72;;;18.38;59.04
28000;BME280;15328;50.860;10.562;2023-07-20T06:21:57;96309.31;;;18.46;58.82
28000;BME280;15328;50.860;10.562;2023-07-20T06:26:57;96300.66;;;18.54;58.44
28000;BME280;15328;50.860;10.562;2023-07-20T06:31:58;96295.84;;;18.72;58.07
28000;BME280;15328;50.860;10.562;2023-07-20T06:36:58;96293.91;;;18.82;57.61
28000;BME280;15328;50.860;10.562;2023-07-20T06:41:58;96292.25;;;19.02;57.19
28000;BME280;15328;50.860;10.562;2023-07-20T06:46:59;96293.56;;;19.20;56.26
28000;BME280;15328;50.860;10.562;2023-07-20T06:52:00;96296.16;;;19.35;55.92
28000;BME280;15328;50.860;10.562;2023-07-20T06:57:00;96304.19;;;19.50;56.19
28000;BME280;15328;50.860;10.562;2023-07-20T07:02:00;96300.06;;;19.68;54.97
28000;BME280;15328;50.860;10.562;2023-07-20T07:07:01;96303.56;;;19.73;53.26
28000;BME280;15328;50.860;10.562;2023-07-20T07:12:02;96306.00;;;19.75;52.59
28000;BME280;15328;50.860;10.562;2023-07-20T07:17:03;96303.78;;;19.82;51.93
28000;BME280;15328;50.860;10.562;2023-07-20T07:22:04;96298.06;;;19.89;52.21
28000;BME280;15328;50.860;10.562;2023-07-20T07:27:04;96300.69;;;20.04;51.91
28000;BME280;15328;50.860;10.562;2023-07-20T07:32:05;96311.41;;;20.14;52.09
28000;BME280;15328;50.860;10.562;2023-07-20T07:37:06;96313.31;;;20.09;51.03
28000;BME280;15328;50.860;10.562;2023-07-20T07:42:06;96316.16;;;20.27;51.27
28000;BME280;15328;50.860;10.562;2023-07-20T07:47:07;96317.69;;;20.38;50.41
28000;BME280;15328;50.860;10.562;2023-07-20T07:52:07;96317.56;;;20.59;50.18
28000;BME280;15328;50.860;10.562;2023-07-20T07:57:08;96320.97;;;20.70;49.80
28000;BME280;15328;50.860;10.562;2023-07-20T08:02:09;96324.94;;;20.77;48.93
28000;BME280;15328;50.860;10.562;2023-07-20T08:07:09;96323.00;;;20.83;48.46
28000;BME280;15328;50.860;10.562;2023-07-20T08:12:09;96320.47;;;20.91;48.13
28000;BME280;15328;50.860;10.562;2023-07-20T08:17:10;96322.16;;;21.11;48.64
28000;BME280;15328;50.860;10.562;2023-07-20T08:22:10;96328.00;;;21.23;47.04
28000;BME280;15328;50.860;10.562;2023-07-20T08:27:12;96330.59;;;21.34;47.26
28000;BME280;15328;50.860;10.562;2023-07-20T08:32:12;96336.47;;;21.41;46.46
28000;BME280;15328;50.860;10.562;2023-07-20T08:37:14;96325.50;;;21.51;45.77
28000;BME280;15328;50.860;10.562;2023-07-20T08:42:14;96325.75;;;21.54;46.08
28000;BME280;15328;50.860;10.562;2023-07-20T08:47:16;96320.94;;;21.70;45.18
28000;BME280;15328;50.860;10.562;2023-07-20T08:52:16;96329.00;;;21.75;44.51
28000;BME280;15328;50.860;10.562;2023-07-20T08:57:17;96326.75;;;22.01;44.57
28000;BME280;15328;50.860;10.562;2023-07-20T09:02:18;96340.66;;;22.13;43.02
28000;BME280;15328;50.860;10.562;2023-07-20T09:07:20;96338.97;;;22.17;43.53
28000;BME280;15328;50.860;10.562;2023-07-20T09:12:21;96340.16;;;22.30;43.41
28000;BME280;15328;50.860;10.562;2023-07-20T09:17:25;96332.75;;;22.36;44.04
28000;BME280;15328;50.860;10.562;2023-07-20T09:22:30;96332.84;;;22.63;42.95
28000;BME280;15328;50.860;10.562;2023-07-20T09:27:35;96346.94;;;22.79;42.45
28000;BME280;15328;50.860;10.562;2023-07-20T09:32:46;96334.88;;;23.04;41.13
28000;BME280;15328;50.860;10.562;2023-07-20T09:38:00;96340.22;;;23.23;40.07
28000;BME280;15328;50.860;10.562;2023-07-20T09:43:01;96353.03;;;22.90;39.99
28000;BME280;15328;50.860;10.562;2023-07-20T09:48:04;96337.16;;;22.97;39.94
28000;BME280;15328;50.860;10.562;2023-07-20T09:53:06;96324.34;;;23.30;39.63
28000;BME280;15328;50.860;10.562;2023-07-20T09:58:10;96322.50;;;23.80;39.54
28000;BME280;15328;50.860;10.562;2023-07-20T10:03:14;96334.69;;;24.19;38.46
28000;BME280;15328;50.860;10.562;2023-07-20T10:08:16;96322.50;;;24.75;36.40
28000;BME280;15328;50.860;10.562;2023-07-20T10:13:25;96339.31;;;24.99;34.25
28000;BME280;15328;50.860;10.562;2023-07-20T10:18:33;96366.19;;;24.78;35.18
28000;BME280;15328;50.860;10.562;2023-07-20T10:23:35;96387.09;;;24.47;37.89
28000;BME280;15328;50.860;10.562;2023-07-20T10:28:36;96413.56;;;23.64;40.16
28000;BME280;15328;50.860;10.562;2023-07-20T10:33:37;96430.38;;;22.49;44.33
28000;BME280;15328;50.860;10.562;2023-07-20T10:43:48;96420.16;;;20.98;49.63
28000;BME280;15328;50.860;10.562;2023-07-20T10:49:02;96414.22;;;20.67;51.62
28000;BME280;15328;50.860;10.562;2023-07-20T10:54:08;96418.19;;;20.35;53.21
28000;BME280;15328;50.860;10.562;2023-07-20T11:04:40;96416.00;;;20.43;55.05
28000;BME280;15328;50.860;10.562;2023-07-20T11:09:40;96418.22;;;20.30;53.31
28000;BME280;15328;50.860;10.562;2023-07-20T11:14:56;96417.44;;;20.25;53.98
28000;BME280;15328;50.860;10.562;2023-07-20T11:19:58;96413.13;;;20.29;53.86
28000;BME280;15328;50.860;10.562;2023-07-20T11:25:00;96407.91;;;20.37;54.27
28000;BME280;15328;50.860;10.562;2023-07-20T11:30:01;96409.19;;;20.55;54.99
28000;BME280;15328;50.860;10.562;2023-07-20T11:35:01;96413.72;;;21.23;56.16
28000;BME280;15328;50.860;10.562;2023-07-20T11:40:02;96418.47;;;21.84;53.36
28000;BME280;15328;50.860;10.562;2023-07-20T11:45:03;96411.66;;;22.10;50.91
28000;BME280;15328;50.860;10.562;2023-07-20T11:50:05;96419.38;;;22.41;50.46
28000;BME280;15328;50.860;10.562;2023-07-20T11:55:07;96421.34;;;22.54;49.48
28000;BME280;15328;50.860;10.562;2023-07-20T12:00:09;96421.19;;;22.64;47.75
28000;BME280;15328;50.860;10.562;2023-07-20T12:05:12;96430.06;;;22.51;46.78
28000;BME280;15328;50.860;10.562;2023-07-20T12:10:13;96428.75;;;22.30;47.22
28000;BME280;15328;50.860;10.562;2023-07-20T12:15:24;96419.81;;;22.29;46.75
28000;BME280;15328;50.860;10.562;2023-07-20T12:20:33;96405.66;;;22.13;47.29
28000;BME280;15328;50.860;10.562;2023-07-20T12:25:42;96419.50;;;22.12;47.42
28000;BME280;15328;50.860;10.562;2023-07-20T12:30:44;96420.38;;;22.07;47.42
28000;BME280;15328;50.860;10.562;2023-07-20T12:35:45;96420.81;;;21.90;45.91
28000;BME280;15328;50.860;10.562;2023-07-20T12:40:45;96424.47;;;21.81;46.48
28000;BME280;15328;50.860;10.562;2023-07-20T12:45:46;96411.00;;;21.52;46.49
28000;BME280;15328;50.860;10.562;2023-07-20T12:50:47;96408.00;;;21.29;47.15
28000;BME280;15328;50.860;10.562;2023-07-20T12:55:47;96410.63;;;21.40;47.76
28000;BME280;15328;50.860;10.562;2023-07-20T13:00:48;96410.13;;;21.56;47.85
28000;BME280;15328;50.860;10.562;2023-07-20T13:05:48;96400.94;;;21.57;46.96
28000;BME280;15328;50.860;10.562;2023-07-20T13:10:49;96400.97;;;21.76;46.42
28000;BME280;15328;50.860;10.562;2023-07-20T13:15:49;96394.50;;;21.96;44.95
28000;BME280;15328;50.860;10.562;2023-07-20T13:20:50;96397.31;;;22.10;44.16
28000;BME280;15328;50.860;10.562;2023-07-20T13:25:50;96393.88;;;22.04;43.87
28000;BME280;15328;50.860;10.562;2023-07-20T13:30:50;96394.16;;;22.03;44.87
28000;BME280;15328;50.860;10.562;2023-07-20T13:35:51;96392.19;;;22.08;45.17
28000;BME280;15328;50.860;10.562;2023-07-20T13:40:51;96386.63;;;22.18;44.87
28000;BME280;15328;50.860;10.562;2023-07-20T13:45:52;96385.91;;;22.32;44.70
28000;BME280;15328;50.860;10.562;2023-07-20T13:50:52;96394.97;;;22.60;43.51
28000;BME280;15328;50.860;10.562;2023-07-20T13:55:53;96389.47;;;22.65;42.76
28000;BME280;15328;50.860;10.562;2023-07-20T14:00:54;96396.38;;;22.57;43.05
28000;BME280;15328;50.860;10.562;2023-07-20T14:05:55;96388.03;;;22.54;43.65
28000;BME280;15328;50.860;10.562;2023-07-20T14:10:56;96394.03;;;22.50;43.66
28000;BME280;15328;50.860;10.562;2023-07-20T14:15:56;96394.78;;;22.37;44.70
28000;BME280;15328;50.860;10.562;2023-07-20T14:20:57;96395.50;;;22.24;46.11
28000;BME280;15328;50.860;10.562;2023-07-20T14:25:57;96390.63;;;22.02;48.08
28000;BME280;15328;50.860;10.562;2023-07-20T14:30:58;96392.41;;;21.69;49.25
28000;BME280;15328;50.860;10.562;2023-07-20T14:35:59;96386.44;;;21.48;50.43
28000;BME280;15328;50.860;10.562;2023-07-20T14:41:01;96389.56;;;21.37;51.30
28000;BME280;15328;50.860;10.562;2023-07-20T14:46:02;96391.78;;;21.29;52.09
28000;BME280;15328;50.860;10.562;2023-07-20T14:51:02;96389.44;;;21.18;53.05
28000;BME280;15328;50.860;10.562;2023-07-20T14:56:03;96390.63;;;21.07;53.94
28000;BME280;15328;50.860;10.562;2023-07-20T15:01:04;96387.44;;;20.99;53.72
28000;BME280;15328;50.860;10.562;2023-07-20T15:06:10;96384.78;;;20.94;52.76
28000;BME280;15328;50.860;10.562;2023-07-20T15:11:11;96384.44;;;21.01;53.91
28000;BME280;15328;50.860;10.562;2023-07-20T15:16:11;96374.34;;;21.12;54.49
28000;BME280;15328;50.860;10.562;2023-07-20T15:21:12;96374.91;;;21.09;54.53
28000;BME280;15328;50.860;10.562;2023-07-20T15:26:12;96368.38;;;21.15;54.83
28000;BME280;15328;50.860;10.562;2023-07-20T15:31:12;96360.56;;;21.13;55.20
28000;BME280;15328;50.860;10.562;2023-07-20T15:36:13;96354.84;;;21.15;54.75
28000;BME280;15328;50.860;10.562;2023-07-20T15:41:14;96344.22;;;21.23;53.80
28000;BME280;15328;50.860;10.562;2023-07-20T15:51:40;96358.00;;;21.27;54.04
28000;BME280;15328;50.860;10.562;2023-07-20T15:56:42;96349.72;;;21.42;54.21
28000;BME280;15328;50.860;10.562;2023-07-20T16:01:43;96347.91;;;21.56;52.54
28000;BME280;15328;50.860;10.562;2023-07-20T16:06:43;96331.88;;;21.60;52.06
28000;BME280;15328;50.860;10.562;2023-07-20T16:11:44;96343.28;;;21.57;50.75
28000;BME280;15328;50.860;10.562;2023-07-20T16:16:44;96343.94;;;21.49;49.94
28000;BME280;15328;50.860;10.562;2023-07-20T16:21:45;96345.84;;;21.48;51.17
28000;BME280;15328;50.860;10.562;2023-07-20T16:26:45;96344.81;;;21.44;51.59
28000;BME280;15328;50.860;10.562;2023-07-20T16:31:46;96346.06;;;21.52;50.31
28000;BME280;15328;50.860;10.562;2023-07-20T16:36:46;96339.19;;;21.59;49.68
28000;BME280;15328;50.860;10.562;2023-07-20T16:41:46;96337.25;;;21.65;49.50
28000;BME280;15328;50.860;10.562;2023-07-20T16:46:47;96328.25;;;21.70;49.84
28000;BME280;15328;50.860;10.562;2023-07-20T16:51:47;96330.97;;;21.70;49.41
28000;BME280;15328;50.860;10.562;2023-07-20T16:56:47;96316.94;;;21.68;48.54
28000;BME280;15328;50.860;10.562;2023-07-20T17:01:48;96321.06;;;21.60;47.53
28000;BME280;15328;50.860;10.562;2023-07-20T17:06:48;96324.06;;;21.58;48.20
28000;BME280;15328;50.860;10.562;2023-07-20T17:11:48;96312.22;;;21.54;48.47
28000;BME280;15328;50.860;10.562;2023-07-20T17:16:49;96299.63;;;21.45;49.65
28000;BME280;15328;50.860;10.562;2023-07-20T17:21:49;96301.09;;;21.37;50.12
28000;BME280;15328;50.860;10.562;2023-07-20T17:26:50;96309.19;;;21.37;50.80
28000;BME280;15328;50.860;10.562;2023-07-20T17:31:50;96304.91;;;21.31;50.32
28000;BME280;15328;50.860;10.562;2023-07-20T17:36:50;96302.59;;;21.19;50.04
28000;BME280;15328;50.860;10.562;2023-07-20T17:41:51;96307.84;;;21.11;49.99
28000;BME280;15328;50.860;10.562;2023-07-20T17:46:52;96308.16;;;21.04;50.13
28000;BME280;15328;50.860;10.562;2023-07-20T17:51:52;96303.69;;;20.94;49.95
28000;BME280;15328;50.860;10.562;2023-07-20T17:56:53;96305.69;;;20.84;50.48
28000;BME280;15328;50.860;10.562;2023-07-20T18:01:53;96303.38;;;20.72;50.81
28000;BME280;15328;50.860;10.562;2023-07-20T18:06:53;96291.34;;;20.59;51.14
28000;BME280;15328;50.860;10.562;2023-07-20T18:11:54;96289.22;;;20.56;51.39
28000;BME280;15328;50.860;10.562;2023-07-20T18:16:54;96295.44;;;20.52;51.54
28000;BME280;15328;50.860;10.562;2023-07-20T18:21:55;96285.72;;;20.51;51.38
28000;BME280;15328;50.860;10.562;2023-07-20T18:26:56;96284.16;;;20.45;52.10
28000;BME280;15328;50.860;10.562;2023-07-20T18:31:56;96284.72;;;20.42;51.42
28000;BME280;15328;50.860;10.562;2023-07-20T18:36:57;96288.53;;;20.41;51.02
28000;BME280;15328;50.860;10.562;2023-07-20T18:41:57;96279.88;;;20.38;49.89
28000;BME280;15328;50.860;10.562;2023-07-20T18:46:59;96280.97;;;20.37;49.89
28000;BME280;15328;50.860;10.562;2023-07-20T18:52:00;96286.66;;;20.36;49.38
28000;BME280;15328;50.860;10.562;2023-07-20T18:57:01;96289.41;;;20.26;48.69
28000;BME280;15328;50.860;10.562;2023-07-20T19:02:01;96294.28;;;20.24;48.44
28000;BME280;15328;50.860;10.562;2023-07-20T19:07:02;96289.78;;;20.14;48.16
28000;BME280;15328;50.860;10.562;2023-07-20T19:12:03;96282.03;;;20.08;48.11
28000;BME280;15328;50.860;10.562;2023-07-20T19:17:03;96289.34;;;20.02;48.28
28000;BME280;15328;50.860;10.562;2023-07-20T19:22:04;96287.22;;;19.94;48.14
28000;BME280;15328;50.860;10.562;2023-07-20T19:27:05;96287.34;;;19.79;48.24
28000;BME280;15328;50.860;10.562;2023-07-20T19:32:06;96302.78;;;19.68;48.49
28000;BME280;15328;50.860;10.562;2023-07-20T19:37:06;96305.53;;;19.58;48.53
28000;BME280;15328;50.860;10.562;2023-07-20T19:42:07;96309.34;;;19.47;48.69
28000;BME280;15328;50.860;10.562;2023-07-20T19:47:07;96310.44;;;19.45;48.96
28000;BME280;15328;50.860;10.562;2023-07-20T19:52:08;96312.38;;;19.30;48.06
28000;BME280;15328;50.860;10.562;2023-07-20T19:57:08;96311.13;;;19.02;48.33
28000;BME280;15328;50.860;10.562;2023-07-20T20:02:08;96306.84;;;18.86;48.69
28000;BME280;15328;50.860;10.562;2023-07-20T20:07:09;96312.53;;;18.69;48.95
28000;BME280;15328;50.860;10.562;2023-07-20T20:12:12;96315.72;;;18.61;49.09
28000;BME280;15328;50.860;10.562;2023-07-20T20:17:12;96307.94;;;18.49;49.07
28000;BME280;15328;50.860;10.562;2023-07-20T20:22:13;96318.19;;;18.37;48.90
28000;BME280;15328;50.860;10.562;2023-07-20T20:27:13;96318.72;;;18.23;49.46
28000;BME280;15328;50.860;10.562;2023-07-20T20:32:14;96318.47;;;18.15;49.22
28000;BME280;15328;50.860;10.562;2023-07-20T20:37:14;96323.56;;;18.11;49.58
28000;BME280;15328;50.860;10.562;2023-07-20T20:42:15;96317.63;;;18.04;49.23
28000;BME280;15328;50.860;10.562;2023-07-20T20:47:15;96314.38;;;17.97;49.30
28000;BME280;15328;50.860;10.562;2023-07-20T20:52:16;96315.19;;;17.92;49.63
28000;BME280;15328;50.860;10.562;2023-07-20T20:57:17;96320.03;;;17.90;49.39
28000;BME280;15328;50.860;10.562;2023-07-20T21:02:17;96315.19;;;17.87;49.53
28000;BME280;15328;50.860;10.562;2023-07-20T21:07:18;96315.72;;;17.89;49.33
28000;BME280;15328;50.860;10.562;2023-07-20T21:12:18;96306.59;;;17.85;50.07
28000;BME280;15328;50.860;10.562;2023-07-20T21:17:19;96302.28;;;17.84;49.84
28000;BME280;15328;50.860;10.562;2023-07-20T21:22:19;96298.47;;;17.80;49.83
28000;BME280;15328;50.860;10.562;2023-07-20T21:27:19;96295.78;;;17.75;49.63
28000;BME280;15328;50.860;10.562;2023-07-20T21:32:20;96289.31;;;17.71;50.18
28000;BME280;15328;50.860;10.562;2023-07-20T21:37:20;96298.16;;;17.61;50.49
28000;BME280;15328;50.860;10.562;2023-07-20T21:42:21;96291.97;;;17.56;50.16
28000;BME280;15328;50.860;10.562;2023-07-20T21:47:21;96288.97;;;17.52;50.30
28000;BME280;15328;50.860;10.562;2023-07-20T21:52:22;96285.47;;;17.42;50.40
28000;BME280;15328;50.860;10.562;2023-07-20T21:57:22;96284.38;;;17.33;50.31
28000;BME280;15328;50.860;10.562;2023-07-20T22:02:22;96280.81;;;17.22;50.88
28000;BME280;15328;50.860;10.562;2023-07-20T22:07:23;96280.00;;;17.21;51.05
28000;BME280;15328;50.860;10.562;2023-07-20T22:12:23;96286.19;;;17.22;50.81
28000;BME280;15328;50.860;10.562;2023-07-20T22:17:23;96274.34;;;17.13;50.72
28000;BME280;15328;50.860;10.562;2023-07-20T22:22:24;96281.03;;;17.05;50.86
28000;BME280;15328;50.860;10.562;2023-07-20T22:27:24;96268.06;;;16.97;50.25
28000;BME280;15328;50.860;10.562;2023-07-20T22:32:24;96271.03;;;16.95;50.18
28000;BME280;15328;50.860;10.562;2023-07-20T22:37:25;96266.97;;;16.93;50.65
28000;BME280;15328;50.860;10.562;2023-07-20T22:42:25;96270.44;;;16.83;50.92
28000;BME280;15328;50.860;10.562;2023-07-20T22:47:26;96271.69;;;16.71;50.49
28000;BME280;15328;50.860;10.562;2023-07-20T22:52:27;96266.78;;;16.62;51.20
28000;BME280;15328;50.860;10.562;2023-07-20T22:57:28;96254.69;;;16.60;51.68
28000;BME280;15328;50.860;10.562;2023-07-20T23:02:28;96253.34;;;16.57;51.82
28000;BME280;15328;50.860;10.562;2023-07-20T23:07:28;96254.72;;;16.65;51.39
28000;BME280;15328;50.860;10.562;2023-07-20T23:12:29;96262.28;;;16.68;51.68
28000;BME280;15328;50.860;10.562;2023-07-20T23:17:29;96259.88;;;16.66;51.76
28000;BME280;15328;50.860;10.562;2023-07-20T23:22:29;96253.63;;;16.61;51.05
28000;BME280;15328;50.860;10.562;2023-07-20T23:27:32;96257.38;;;16.60;51.14
28000;BME280;15328;50.860;10.562;2023-07-20T23:32:34;96247.44;;;16.60;51.03
28000;BME280;15328;50.860;10.562;2023-07-20T23:37:36;96251.00;;;16.66;50.79
28000;BME280;15328;50.860;10.562;2023-07-20T23:42:41;96243.69;;;16.61;50.92
28000;BME280;15328;50.860;10.562;2023-07-20T23:47:42;96241.81;;;16.62;50.61
28000;BME280;15328;50.860;10.562;2023-07-20T23:52:42;96243.50;;;16.68;50.67
28000;BME280;15328;50.860;10.562;2023-07-20T23:57:44;96229.56;;;16.71;50.75
